createdAt,value
2022-10-01T00:01:11.874Z,77.90
2022-10-01T00:03:38.271Z,78.07
2022-10-01T00:06:16.531Z,78.27
2022-10-01T00:08:48.594Z,78.81
2022-10-01T00:11:16.476Z,79.05
2022-10-01T00:13:43.250Z,80.20
2022-10-01T00:16:13.777Z,79.18
2022-10-01T00:18:44.246Z,79.48
2022-10-01T00:21:12.146Z,79.65
2022-10-01T00:23:38.554Z,79.47
2022-10-01T00:26:27.074Z,79.95
2022-10-01T00:28:55.550Z,80.55
2022-10-01T00:31:21.924Z,81.34
2022-10-01T00:33:48.777Z,81.60
2022-10-01T00:36:15.170Z,80.71
2022-10-01T00:38:42.176Z,80.71
2022-10-01T00:41:09.163Z,80.92
2022-10-01T00:43:37.758Z,81.37
2022-10-01T00:46:07.719Z,82.00
2022-10-01T00:48:37.581Z,81.94
2022-10-01T00:51:06.452Z,82.02
2022-10-01T00:53:32.894Z,82.92
2022-10-01T00:55:59.840Z,83.10
2022-10-01T00:58:26.803Z,82.63
2022-10-01T01:00:55.575Z,82.86
2022-10-01T01:03:22.160Z,82.88
2022-10-01T01:05:50.157Z,83.08
2022-10-01T01:08:17.446Z,83.38
2022-10-01T01:10:55.876Z,83.30
2022-10-01T01:13:25.193Z,83.22
2022-10-01T01:15:55.962Z,83.80
2022-10-01T01:18:40.922Z,83.34
2022-10-01T01:21:10.349Z,83.56
2022-10-01T01:23:55.538Z,83.30
2022-10-01T01:26:33.553Z,83.40
2022-10-01T01:29:13.381Z,83.73
2022-10-01T01:31:42.601Z,83.12
2022-10-01T01:34:12.389Z,83.91
2022-10-01T01:36:42.413Z,84.09
2022-10-01T01:39:09.998Z,83.33
2022-10-01T01:41:38.558Z,84.54
2022-10-01T01:44:08.835Z,84.32
2022-10-01T01:46:37.669Z,84.05
2022-10-01T01:49:05.225Z,84.35
2022-10-01T01:51:48.591Z,84.87
2022-10-01T01:54:15.025Z,84.73
2022-10-01T01:56:41.941Z,84.90
2022-10-01T01:59:08.528Z,85.69
2022-10-01T02:01:38.862Z,86.04
2022-10-01T02:04:13.033Z,85.46
2022-10-01T02:06:45.298Z,85.21
2022-10-01T02:09:21.292Z,85.73
2022-10-01T02:11:58.684Z,85.65
2022-10-01T02:14:25.016Z,85.73
2022-10-01T02:17:01.380Z,85.70
2022-10-01T02:19:27.652Z,86.06
2022-10-01T02:21:56.984Z,86.11
2022-10-01T02:24:26.151Z,86.23
2022-10-01T02:26:54.713Z,85.67
2022-10-01T02:29:22.458Z,86.75
2022-10-01T02:31:53.435Z,86.37
2022-10-01T02:34:20.964Z,86.47
2022-10-01T02:36:48.725Z,86.57
2022-10-01T02:39:16.330Z,86.19
2022-10-01T02:41:44.148Z,85.76
2022-10-01T02:44:13.657Z,86.45
2022-10-01T02:46:45.227Z,86.61
2022-10-01T02:49:13.295Z,86.50
2022-10-01T02:51:48.836Z,85.99
2022-10-01T02:54:22.514Z,86.44
2022-10-01T02:57:07.596Z,86.29
2022-10-01T02:59:34.098Z,85.90
2022-10-01T03:02:00.463Z,86.03
2022-10-01T03:04:26.802Z,86.35
2022-10-01T03:06:53.194Z,86.40
2022-10-01T03:09:19.497Z,86.67
2022-10-01T03:11:45.805Z,85.94
2022-10-01T03:14:12.145Z,85.98
2022-10-01T03:16:38.628Z,86.30
2022-10-01T03:19:04.997Z,85.75
2022-10-01T03:21:31.667Z,85.55
2022-10-01T03:23:58.178Z,85.39
2022-10-01T03:26:24.499Z,85.58
2022-10-01T03:28:50.916Z,85.44
2022-10-01T03:31:17.318Z,85.40
2022-10-01T03:33:43.690Z,85.80
2022-10-01T03:36:10.015Z,85.37
2022-10-01T03:38:36.375Z,85.93
2022-10-01T03:41:02.709Z,85.85
2022-10-01T03:43:29.079Z,85.88
2022-10-01T03:45:56.486Z,85.69
2022-10-01T03:48:23.213Z,85.68
2022-10-01T03:50:56.997Z,85.81
2022-10-01T03:53:23.709Z,85.96
2022-10-01T03:55:50.386Z,86.18
2022-10-01T03:58:18.714Z,85.83
2022-10-01T04:00:48.170Z,86.23
2022-10-01T04:03:15.286Z,86.17
2022-10-01T04:05:45.165Z,85.91
2022-10-01T04:08:11.872Z,85.95
2022-10-01T04:10:38.531Z,85.83
2022-10-01T04:13:05.314Z,85.63
2022-10-01T04:15:32.730Z,85.93
2022-10-01T04:17:59.841Z,86.02
2022-10-01T04:20:26.147Z,85.87
2022-10-01T04:22:53.006Z,85.94
2022-10-01T04:25:19.448Z,86.01
2022-10-01T04:27:56.843Z,86.03
2022-10-01T04:30:23.606Z,86.08
2022-10-01T04:32:49.914Z,85.82
2022-10-01T04:35:16.316Z,85.80
2022-10-01T04:37:42.597Z,85.67
2022-10-01T04:40:10.622Z,86.03
2022-10-01T04:42:43.552Z,86.03
2022-10-01T04:45:10.421Z,86.13
2022-10-01T04:47:37.688Z,85.95
2022-10-01T04:50:04.405Z,86.04
2022-10-01T04:52:30.755Z,86.47
2022-10-01T04:54:57.090Z,86.17
2022-10-01T04:57:23.558Z,86.29
2022-10-01T04:59:50.887Z,86.02
2022-10-01T05:02:18.065Z,85.98
2022-10-01T05:04:44.437Z,86.18
2022-10-01T05:07:10.727Z,86.13
2022-10-01T05:09:37.562Z,85.95
2022-10-01T05:12:03.890Z,85.62
2022-10-01T05:14:31.256Z,85.85
2022-10-01T05:17:00.343Z,86.13
2022-10-01T05:19:29.025Z,86.05
2022-10-01T05:21:55.588Z,86.02
2022-10-01T05:24:21.933Z,85.81
2022-10-01T05:26:48.285Z,85.99
2022-10-01T05:29:15.158Z,85.71
2022-10-01T05:31:44.602Z,85.74
2022-10-01T05:34:11.040Z,85.72
2022-10-01T05:36:37.395Z,85.71
2022-10-01T05:39:03.765Z,85.83
2022-10-01T05:41:30.861Z,85.91
2022-10-01T05:43:57.425Z,85.79
2022-10-01T05:46:23.798Z,85.78
2022-10-01T05:48:51.211Z,86.25
2022-10-01T05:51:17.652Z,86.37
2022-10-01T05:53:47.088Z,86.04
2022-10-01T05:56:16.607Z,86.02
2022-10-01T05:58:42.929Z,86.06
2022-10-01T06:01:09.224Z,85.82
2022-10-01T06:03:36.076Z,85.71
2022-10-01T06:06:02.402Z,85.81
2022-10-01T06:08:28.767Z,85.76
2022-10-01T06:10:58.696Z,85.92
2022-10-01T06:13:26.440Z,85.90
2022-10-01T06:15:53.044Z,85.84
2022-10-01T06:18:19.473Z,85.88
2022-10-01T06:20:45.818Z,86.01
2022-10-01T06:23:13.336Z,86.31
2022-10-01T06:25:40.453Z,86.21
2022-10-01T06:28:07.442Z,86.63
2022-10-01T06:30:34.492Z,86.27
2022-10-01T06:33:02.717Z,86.37
2022-10-01T06:35:29.508Z,86.23
2022-10-01T06:37:55.810Z,86.09
2022-10-01T06:40:22.142Z,86.02
2022-10-01T06:42:48.943Z,86.09
2022-10-01T06:45:16.018Z,86.32
2022-10-01T06:47:42.323Z,86.40
2022-10-01T06:50:08.746Z,86.25
2022-10-01T06:52:50.665Z,85.96
2022-10-01T06:55:17.761Z,86.13
2022-10-01T06:57:44.707Z,86.03
2022-10-01T07:00:11.550Z,86.32
2022-10-01T07:02:38.220Z,86.42
2022-10-01T07:05:05.181Z,86.10
2022-10-01T07:07:32.662Z,86.47
2022-10-01T07:09:59.118Z,86.33
2022-10-01T07:12:25.611Z,86.42
2022-10-01T07:14:51.945Z,86.35
2022-10-01T07:17:18.311Z,85.94
2022-10-01T07:19:44.653Z,85.32
2022-10-01T07:22:11.400Z,84.54
2022-10-01T07:24:37.894Z,84.05
2022-10-01T07:27:07.371Z,83.35
2022-10-01T07:29:34.154Z,82.58
2022-10-01T07:32:01.018Z,81.72
2022-10-01T07:34:28.315Z,81.54
2022-10-01T07:36:56.160Z,81.44
2022-10-01T07:39:23.006Z,81.42
2022-10-01T07:41:51.442Z,81.52
2022-10-01T07:44:18.533Z,81.04
2022-10-01T07:46:45.258Z,80.61
2022-10-01T07:49:11.741Z,80.85
2022-10-01T07:51:38.065Z,80.33
2022-10-01T07:54:04.969Z,79.92
2022-10-01T07:56:31.567Z,79.51
2022-10-01T07:58:58.644Z,79.15
2022-10-01T08:01:25.212Z,78.86
2022-10-01T08:03:52.356Z,78.17
2022-10-01T08:06:24.592Z,78.06
2022-10-01T08:08:51.810Z,77.53
2022-10-01T08:11:18.271Z,77.14
2022-10-01T08:13:45.717Z,76.19
2022-10-01T08:16:12.300Z,75.76
2022-10-01T08:18:40.543Z,74.79
2022-10-01T08:21:07.429Z,74.37
2022-10-01T08:23:34.405Z,74.13
2022-10-01T08:26:02.034Z,73.54
2022-10-01T08:28:28.496Z,74.05
2022-10-01T08:30:56.104Z,73.45
2022-10-01T08:33:22.827Z,73.22
2022-10-01T08:35:49.187Z,72.53
2022-10-01T08:38:15.632Z,72.98
2022-10-01T08:40:47.244Z,72.91
2022-10-01T08:43:14.242Z,72.78
2022-10-01T08:45:43.100Z,72.36
2022-10-01T08:48:16.644Z,71.71
2022-10-01T08:50:46.456Z,70.63
2022-10-01T08:53:16.574Z,69.91
2022-10-01T08:55:43.871Z,68.83
2022-10-01T08:58:12.138Z,69.15
2022-10-01T09:00:44.532Z,68.37
2022-10-01T09:03:12.853Z,68.10
2022-10-01T09:05:48.177Z,68.33
2022-10-01T09:08:17.261Z,69.07
2022-10-01T09:10:49.657Z,69.50
2022-10-01T09:13:24.492Z,70.34
2022-10-01T09:15:56.706Z,70.18
2022-10-01T09:18:38.080Z,70.43
2022-10-01T09:21:07.550Z,71.14
2022-10-01T09:23:42.538Z,71.33
2022-10-01T09:26:11.218Z,71.87
2022-10-01T09:28:38.353Z,71.84
2022-10-01T09:31:12.120Z,72.14
2022-10-01T09:33:42.470Z,71.96
2022-10-01T09:36:08.755Z,71.40
2022-10-01T09:38:38.586Z,71.41
2022-10-01T09:41:05.113Z,70.14
2022-10-01T09:43:36.744Z,70.23
2022-10-01T09:46:06.704Z,70.09
2022-10-01T09:48:38.500Z,69.38
2022-10-01T09:51:25.098Z,68.74
2022-10-01T09:53:51.505Z,67.85
2022-10-01T09:56:24.314Z,67.27
2022-10-01T09:58:53.986Z,66.32
2022-10-01T10:01:29.168Z,66.40
2022-10-01T10:03:57.125Z,65.27
2022-10-01T10:06:27.302Z,64.15
2022-10-01T10:08:55.143Z,64.25
2022-10-01T10:11:23.978Z,64.31
2022-10-01T10:13:51.554Z,65.30
2022-10-01T10:16:21.786Z,65.80
2022-10-01T10:18:52.178Z,66.23
2022-10-01T10:21:21.561Z,66.19
2022-10-01T10:23:54.163Z,66.88
2022-10-01T10:26:32.498Z,67.48
2022-10-01T10:29:02.039Z,68.79
2022-10-01T10:31:30.056Z,69.42
2022-10-01T10:33:57.378Z,69.71
2022-10-01T10:36:28.884Z,69.28
2022-10-01T10:38:56.218Z,68.10
2022-10-01T10:41:26.458Z,67.23
2022-10-01T10:43:56.136Z,67.61
2022-10-01T10:46:30.410Z,68.26
2022-10-01T10:49:18.361Z,67.77
2022-10-01T10:51:51.243Z,67.66
2022-10-01T10:54:19.069Z,68.21
2022-10-01T10:56:52.696Z,67.15
2022-10-01T10:59:20.893Z,66.16
2022-10-01T11:01:48.099Z,64.15
2022-10-01T11:04:41.044Z,62.56
2022-10-01T11:07:07.944Z,62.00
2022-10-01T11:09:46.329Z,61.47
2022-10-01T11:12:19.611Z,61.23
2022-10-01T11:14:53.440Z,62.06
2022-10-01T11:17:50.556Z,62.47
2022-10-01T11:20:25.469Z,62.18
2022-10-01T11:23:12.080Z,61.51
2022-10-01T11:25:48.342Z,59.89
2022-10-01T11:28:51.316Z,58.21
2022-10-01T11:31:43.487Z,58.69
2022-10-01T13:03:16.525Z,60.50
2022-10-01T13:06:35.763Z,61.43
2022-10-01T13:09:44.248Z,61.84
2022-10-01T13:12:44.060Z,62.68
2022-10-01T13:15:22.309Z,60.47
2022-10-01T13:17:52.338Z,60.84
2022-10-01T13:20:31.086Z,61.43
2022-10-01T13:23:12.260Z,60.88
2022-10-01T13:25:52.744Z,59.99
2022-10-01T13:28:22.449Z,59.25
2022-10-01T13:31:00.437Z,57.59
2022-10-01T13:33:36.064Z,56.54
2022-10-01T13:36:03.696Z,55.69
2022-10-01T13:38:39.139Z,54.78
2022-10-01T13:41:25.776Z,54.59
2022-10-01T13:44:16.815Z,54.86
2022-10-01T13:46:55.104Z,54.10
2022-10-01T13:49:25.151Z,53.39
2022-10-01T13:51:52.572Z,53.32
2022-10-01T13:54:23.913Z,52.86
2022-10-01T13:56:50.285Z,54.16
2022-10-01T13:59:25.129Z,55.29
2022-10-01T14:01:51.715Z,55.43
2022-10-01T14:04:21.137Z,55.42
2022-10-01T14:06:56.917Z,54.67
2022-10-01T14:09:27.635Z,54.45
2022-10-01T14:12:16.464Z,53.56
2022-10-01T14:15:09.647Z,52.88
2022-10-01T14:17:36.743Z,52.54
2022-10-01T14:20:03.744Z,51.67
2022-10-01T14:22:36.114Z,52.85
2022-10-01T14:25:02.548Z,53.57
2022-10-01T14:27:45.575Z,53.49
2022-10-01T14:30:23.297Z,53.23
2022-10-01T14:33:08.729Z,53.51
2022-10-01T14:35:38.041Z,53.08
2022-10-01T14:38:11.533Z,53.86
2022-10-01T14:40:39.780Z,54.74
2022-10-01T14:43:15.339Z,55.78
2022-10-01T14:45:50.988Z,56.38
2022-10-01T14:48:17.347Z,57.80
2022-10-01T14:50:49.227Z,57.44
2022-10-01T14:53:17.549Z,57.64
2022-10-01T14:55:44.114Z,59.33
2022-10-01T14:58:19.016Z,59.71
2022-10-01T15:00:50.618Z,60.21
2022-10-01T15:03:17.118Z,59.73
2022-10-01T15:05:44.752Z,59.40
2022-10-01T15:08:13.265Z,58.86
2022-10-01T15:10:41.419Z,60.19
2022-10-01T15:13:17.337Z,59.42
2022-10-01T15:15:43.873Z,59.54
2022-10-01T15:18:14.994Z,59.89
2022-10-01T15:20:59.186Z,60.05
2022-10-01T15:23:27.442Z,60.63
2022-10-01T15:25:54.745Z,60.74
2022-10-01T15:28:31.833Z,61.45
2022-10-01T15:31:00.867Z,61.01
2022-10-01T15:33:28.972Z,61.34
2022-10-01T15:35:56.537Z,61.25
2022-10-01T15:38:23.710Z,61.22
2022-10-01T15:41:13.892Z,62.10
2022-10-01T15:43:45.264Z,62.43
2022-10-01T15:46:16.955Z,62.11
2022-10-01T15:48:43.556Z,63.27
2022-10-01T15:51:25.371Z,63.00
2022-10-01T15:53:52.816Z,63.24
2022-10-01T15:56:21.297Z,63.34
2022-10-01T15:58:52.377Z,63.01
2022-10-01T16:01:24.815Z,62.91
2022-10-01T16:04:03.333Z,63.21
2022-10-01T16:06:51.871Z,63.34
2022-10-01T16:09:23.617Z,63.70
2022-10-01T16:11:53.277Z,63.28
2022-10-01T16:14:34.572Z,63.44
2022-10-01T16:17:16.408Z,63.56
2022-10-01T16:19:46.968Z,63.44
2022-10-01T16:22:19.158Z,63.44
2022-10-01T16:24:46.693Z,63.77
2022-10-01T16:27:15.635Z,63.38
2022-10-01T16:29:43.297Z,63.53
2022-10-01T16:32:14.029Z,63.19
2022-10-01T16:34:40.386Z,63.24
2022-10-01T16:37:06.740Z,63.46
2022-10-01T16:39:33.116Z,63.48
2022-10-01T16:42:19.477Z,63.62
2022-10-01T16:44:47.889Z,63.73
2022-10-01T16:47:14.257Z,63.62
2022-10-01T16:49:41.703Z,63.71
2022-10-01T16:52:12.902Z,63.64
2022-10-01T16:54:39.298Z,63.91
2022-10-01T16:57:05.726Z,64.26
2022-10-01T16:59:33.730Z,64.13
2022-10-01T17:02:02.147Z,63.88
2022-10-01T17:04:34.097Z,63.88
2022-10-01T17:07:00.795Z,64.04
2022-10-01T17:09:27.287Z,64.16
2022-10-01T17:11:53.895Z,63.81
2022-10-01T17:14:21.235Z,63.86
2022-10-01T17:16:48.510Z,64.12
2022-10-01T17:19:14.965Z,64.40
2022-10-01T17:21:41.865Z,64.29
2022-10-01T17:24:10.782Z,64.86
2022-10-01T17:26:41.297Z,64.34
2022-10-01T17:29:08.768Z,64.40
2022-10-01T17:31:40.606Z,64.36
2022-10-01T17:34:07.180Z,64.68
2022-10-01T17:36:35.250Z,64.70
2022-10-01T17:39:02.038Z,64.13
2022-10-01T17:41:28.424Z,64.16
2022-10-01T17:43:54.761Z,64.14
2022-10-01T17:46:21.209Z,64.42
2022-10-01T17:48:49.138Z,64.59
2022-10-01T17:51:16.955Z,64.72
2022-10-01T17:53:43.702Z,64.64
2022-10-01T17:56:12.967Z,64.75
2022-10-01T17:58:42.949Z,64.67
2022-10-01T18:01:13.442Z,64.84
2022-10-01T18:03:40.794Z,64.81
2022-10-01T18:06:07.973Z,64.87
2022-10-01T18:08:54.095Z,64.94
2022-10-01T18:11:22.278Z,64.98
2022-10-01T18:13:50.498Z,65.06
2022-10-01T18:16:19.220Z,64.99
2022-10-01T18:21:50.961Z,65.25
2022-10-01T18:24:17.478Z,65.50
2022-10-01T18:26:45.540Z,65.56
2022-10-01T18:29:17.018Z,65.33
2022-10-01T18:31:45.071Z,65.26
2022-10-01T18:34:24.902Z,65.58
2022-10-01T18:36:55.198Z,65.40
2022-10-01T18:39:28.372Z,65.46
2022-10-01T18:41:56.148Z,65.66
2022-10-01T18:44:22.991Z,65.60
2022-10-01T18:46:49.556Z,65.77
2022-10-01T18:49:34.476Z,65.66
2022-10-01T18:52:00.856Z,65.63
2022-10-01T18:54:37.433Z,66.09
2022-10-01T18:57:21.236Z,65.84
2022-10-01T19:00:02.199Z,65.75
2022-10-01T19:02:40.663Z,66.24
2022-10-01T19:05:19.972Z,66.64
2022-10-01T19:07:52.529Z,66.90
2022-10-01T19:10:24.874Z,67.23
2022-10-01T19:13:11.699Z,67.21
2022-10-01T19:16:01.135Z,67.42
2022-10-01T19:18:46.573Z,67.98
2022-10-01T19:21:22.362Z,67.91
2022-10-01T19:23:54.450Z,68.69
2022-10-01T19:26:26.521Z,68.57
2022-10-01T19:29:19.285Z,69.48
2022-10-01T19:31:53.773Z,68.85
2022-10-01T19:34:39.171Z,68.41
2022-10-01T19:37:10.106Z,68.74
2022-10-01T19:39:38.150Z,69.18
2022-10-01T19:42:06.513Z,69.15
2022-10-01T19:44:51.744Z,68.74
2022-10-01T19:47:34.601Z,68.97
2022-10-01T19:50:06.362Z,69.47
2022-10-01T19:52:35.395Z,70.21
2022-10-01T19:55:01.753Z,69.65
2022-10-01T19:57:28.683Z,69.49
2022-10-01T19:59:58.050Z,69.52
2022-10-01T20:02:31.974Z,69.63
2022-10-01T20:05:02.286Z,70.06
2022-10-01T20:07:30.283Z,70.24
2022-10-01T20:10:12.124Z,70.54
2022-10-01T20:12:43.284Z,71.07
2022-10-01T20:15:19.822Z,70.92
2022-10-01T20:17:50.033Z,71.90
2022-10-01T20:20:20.916Z,71.40
2022-10-01T20:22:55.110Z,71.57
2022-10-01T20:25:33.651Z,72.25
2022-10-01T20:28:14.979Z,72.55
2022-10-01T20:30:50.690Z,72.89
2022-10-01T20:33:27.528Z,72.77
2022-10-01T20:36:00.564Z,73.02
2022-10-01T20:38:32.652Z,73.96
2022-10-01T20:41:03.301Z,73.39
2022-10-01T20:43:38.499Z,74.01
2022-10-01T20:46:09.039Z,74.06
2022-10-01T20:48:37.640Z,74.36
2022-10-01T20:51:22.553Z,74.90
2022-10-01T20:53:58.434Z,74.72
2022-10-01T20:56:31.387Z,74.44
2022-10-01T20:59:07.914Z,74.78
2022-10-01T21:01:39.910Z,74.48
2022-10-01T21:04:15.347Z,74.40
2022-10-01T21:06:45.764Z,74.68
2022-10-01T21:09:18.431Z,74.98
2022-10-01T21:11:48.126Z,75.04
2022-10-01T21:14:19.583Z,75.16
2022-10-01T21:17:06.606Z,75.51
2022-10-01T21:19:51.928Z,75.78
2022-10-01T21:22:33.918Z,75.74
2022-10-01T21:25:00.866Z,75.65
2022-10-01T21:27:49.553Z,75.53
2022-10-01T21:30:19.885Z,75.77
2022-10-01T21:33:00.109Z,75.77
2022-10-01T21:35:31.643Z,75.91
2022-10-01T21:38:04.594Z,75.50
2022-10-01T21:40:47.618Z,75.83
2022-10-01T21:43:23.765Z,75.87
2022-10-01T21:45:54.044Z,75.86
2022-10-01T21:48:27.635Z,75.88
2022-10-01T21:51:14.483Z,76.16
2022-10-01T21:53:56.037Z,76.29
2022-10-01T21:56:47.257Z,76.34
2022-10-01T21:59:17.416Z,76.07
2022-10-01T22:01:43.968Z,76.33
2022-10-01T22:04:10.524Z,76.34
2022-10-01T22:06:41.643Z,76.33
2022-10-01T22:09:16.693Z,76.70
2022-10-01T22:11:47.789Z,76.67
2022-10-01T22:14:16.572Z,76.47
2022-10-01T22:16:49.991Z,76.33
2022-10-01T22:19:21.259Z,76.61
2022-10-01T22:21:53.722Z,76.38
2022-10-01T22:24:27.289Z,76.82
2022-10-01T22:27:05.449Z,77.16
2022-10-01T22:29:35.945Z,76.75
2022-10-01T22:32:04.391Z,76.62
2022-10-01T22:34:37.623Z,77.12
2022-10-01T22:37:07.958Z,77.06
2022-10-01T22:39:48.435Z,77.25
2022-10-01T22:42:18.549Z,77.03
2022-10-01T22:44:47.863Z,77.25
2022-10-01T22:47:21.964Z,77.20
2022-10-01T22:49:58.203Z,77.45
2022-10-01T22:52:43.933Z,77.55
2022-10-01T22:55:13.338Z,77.72
2022-10-01T22:57:52.257Z,77.54
2022-10-01T23:00:21.190Z,77.57
2022-10-01T23:02:59.144Z,77.74
2022-10-01T23:05:30.257Z,77.91
2022-10-01T23:07:57.176Z,77.86
2022-10-01T23:10:33.895Z,78.03
2022-10-01T23:13:08.520Z,78.00
2022-10-01T23:15:42.494Z,78.00
2022-10-01T23:18:13.756Z,78.05
2022-10-01T23:20:43.590Z,77.87
2022-10-01T23:23:09.852Z,77.60
2022-10-01T23:25:48.437Z,77.43
2022-10-01T23:28:22.339Z,77.57
2022-10-01T23:31:15.427Z,77.75
2022-10-01T23:33:41.912Z,77.74
2022-10-01T23:36:26.436Z,77.53
2022-10-01T23:39:05.034Z,77.61
2022-10-01T23:41:51.690Z,77.89
2022-10-01T23:44:22.744Z,77.76
2022-10-01T23:46:50.675Z,78.14
2022-10-01T23:49:18.177Z,77.88
2022-10-01T23:51:53.663Z,78.26
2022-10-01T23:54:23.751Z,78.08
2022-10-01T23:56:55.200Z,78.19
2022-10-01T23:59:31.429Z,78.31
